Time;durP1;ratioP1;P1;durP2;ratioP2;P2;SDS_P1;SDS_P2;PMS_P1;PMS_P2;Temp;Humidity;BMP_temperature;BMP_pressure;BME280_temperature;BME280_humidity;BME280_pressure;Samples;Min_cycle;Max_cycle;Signal;HPM_P1;HPM_P2
2022/04/29 00:00:54;;;;;;;16.02;7.10;;;6.50;99.90;;;;;;4973254;28;50354;-74
2022/04/29 00:03:21;;;;;;;17.63;6.57;;;6.50;99.90;;;;;;4972678;28;20528;-74
2022/04/29 00:05:47;;;;;;;15.35;6.70;;;6.50;99.90;;;;;;4942423;28;155414;-73
2022/04/29 00:08:14;;;;;;;13.40;7.13;;;6.40;99.90;;;;;;5002524;28;20062;-73
2022/04/29 00:10:41;;;;;;;15.43;7.28;;;6.40;99.90;;;;;;4934768;28;168299;-73
2022/04/29 00:13:11;;;;;;;15.00;7.25;;;6.40;99.90;;;;;;4984523;28;20054;-73
2022/04/29 00:15:37;;;;;;;13.93;6.70;;;6.40;99.90;;;;;;4937579;28;179497;-73
2022/04/29 00:18:04;;;;;;;19.05;7.45;;;6.40;99.90;;;;;;4986604;28;20518;-73
2022/04/29 00:20:30;;;;;;;19.65;7.65;;;6.40;99.90;;;;;;4943968;28;196435;-73
2022/04/29 00:22:56;;;;;;;16.80;6.85;;;6.40;99.90;;;;;;4986520;28;20073;-73
2022/04/29 00:25:23;;;;;;;15.32;7.72;;;6.40;99.90;;;;;;4933543;28;228220;-72
2022/04/29 00:27:49;;;;;;;13.25;7.10;;;6.40;99.90;;;;;;4986687;28;20551;-72
2022/04/29 00:30:15;;;;;;;18.42;8.15;;;6.30;99.90;;;;;;4927140;28;64863;-73
2022/04/29 00:32:41;;;;;;;16.27;7.45;;;6.30;99.90;;;;;;4985836;28;20058;-73
2022/04/29 00:35:09;;;;;;;20.33;7.35;;;6.30;99.90;;;;;;4951501;28;208021;-73
2022/04/29 00:37:55;;;;;;;19.10;7.38;;;6.30;99.90;;;;;;4980659;28;20058;-73
2022/04/29 00:40:27;;;;;;;17.33;7.40;;;6.30;99.90;;;;;;4939468;28;88072;-73
2022/04/29 00:42:54;;;;;;;12.50;6.63;;;6.30;99.90;;;;;;4992600;28;20050;-72
2022/04/29 00:45:21;;;;;;;14.65;7.38;;;6.20;99.90;;;;;;4941577;28;207378;-73
2022/04/29 00:47:48;;;;;;;14.50;7.65;;;6.20;99.90;;;;;;4996113;28;20054;-74
2022/04/29 00:50:28;;;;;;;14.45;7.65;;;6.20;99.90;;;;;;4927166;28;20054;-73
2022/04/29 00:52:56;;;;;;;19.80;8.30;;;6.20;99.90;;;;;;4969857;28;20338;-73
2022/04/29 00:55:23;;;;;;;16.10;7.40;;;6.10;99.90;;;;;;4943861;28;20053;-73
2022/04/29 00:57:57;;;;;;;19.67;8.77;;;6.10;99.90;;;;;;4984012;28;20407;-73
2022/04/29 01:00:24;;;;;;;13.77;7.80;;;6.00;99.90;;;;;;4950896;28;205560;-73
2022/04/29 01:02:54;;;;;;;15.48;6.82;;;6.00;99.90;;;;;;4987006;28;20061;-73
2022/04/29 01:05:22;;;;;;;14.82;7.68;;;6.00;99.90;;;;;;4938964;28;163647;-73
2022/04/29 01:07:49;;;;;;;15.23;7.95;;;6.00;99.90;;;;;;4995288;28;20481;-73
2022/04/29 01:10:20;;;;;;;16.02;7.78;;;5.90;99.90;;;;;;4935046;28;200947;-74
2022/04/29 01:12:50;;;;;;;17.58;8.00;;;5.90;99.90;;;;;;4999756;28;20054;-74
2022/04/29 01:15:18;;;;;;;16.27;7.75;;;5.80;99.90;;;;;;4921525;28;190848;-73
2022/04/29 01:17:46;;;;;;;14.60;7.40;;;5.80;99.90;;;;;;4983242;28;20078;-73
2022/04/29 01:20:15;;;;;;;16.85;8.20;;;5.80;99.90;;;;;;4942343;28;216310;-73
2022/04/29 01:22:42;;;;;;;17.80;8.43;;;5.80;99.90;;;;;;4965887;28;20372;-73
2022/04/29 01:25:09;;;;;;;14.35;7.47;;;5.80;99.90;;;;;;4952635;28;102497;-73
2022/04/29 01:27:35;;;;;;;18.90;7.97;;;5.70;99.90;;;;;;4979764;28;20392;-73
2022/04/29 01:30:09;;;;;;;13.90;7.30;;;5.70;99.90;;;;;;4933919;28;224195;-74
2022/04/29 01:32:36;;;;;;;18.23;9.10;;;5.70;99.90;;;;;;4984761;28;20411;-74
2022/04/29 01:35:03;;;;;;;14.75;8.27;;;5.70;99.90;;;;;;4946313;28;206649;-74
2022/04/29 01:37:30;;;;;;;18.45;7.78;;;5.70;99.90;;;;;;4990182;28;20051;-74
2022/04/29 01:39:56;;;;;;;17.30;8.00;;;5.60;99.90;;;;;;4954566;28;132939;-74
2022/04/29 01:42:22;;;;;;;19.85;8.02;;;5.60;99.90;;;;;;4984184;28;20411;-74
2022/04/29 01:44:49;;;;;;;15.23;7.93;;;5.60;99.90;;;;;;4948762;28;20057;-74
2022/04/29 01:47:15;;;;;;;19.17;8.30;;;5.60;99.90;;;;;;4981797;28;20420;-74
2022/04/29 01:49:41;;;;;;;17.25;8.85;;;5.60;99.90;;;;;;4954839;28;222599;-74
2022/04/29 01:52:08;;;;;;;17.77;8.55;;;5.50;99.90;;;;;;4994589;28;20061;-73
2022/04/29 01:54:36;;;;;;;18.83;8.90;;;5.50;99.90;;;;;;4946861;28;219435;-73
2022/04/29 01:57:02;;;;;;;18.15;8.80;;;5.50;99.90;;;;;;4973345;28;20392;-73
2022/04/29 01:59:30;;;;;;;17.23;8.50;;;5.40;99.90;;;;;;4941800;28;73022;-73
2022/04/29 02:01:57;;;;;;;17.20;8.52;;;5.40;99.90;;;;;;4992611;28;20046;-73
2022/04/29 02:04:24;;;;;;;18.45;9.02;;;5.40;99.90;;;;;;4928652;28;181222;-73
2022/04/29 02:06:50;;;;;;;16.98;8.65;;;5.40;99.90;;;;;;4984407;28;20057;-73
2022/04/29 02:09:17;;;;;;;16.65;8.82;;;5.30;99.90;;;;;;4922378;28;68072;-73
2022/04/29 02:14:29;;;;;;;18.23;8.32;;;5.30;99.90;;;;;;4939795;28;109360;-74
2022/04/29 02:16:55;;;;;;;15.80;8.63;;;5.30;99.90;;;;;;4986084;28;20046;-73
2022/04/29 02:19:22;;;;;;;22.20;9.43;;;5.30;99.90;;;;;;4949817;28;171430;-73
2022/04/29 02:21:49;;;;;;;18.25;8.98;;;5.30;99.90;;;;;;4991182;28;20452;-74
2022/04/29 02:24:15;;;;;;;18.88;9.10;;;5.30;99.90;;;;;;4943703;28;97213;-74
2022/04/29 02:26:41;;;;;;;18.88;9.30;;;5.30;99.90;;;;;;4982093;28;20050;-74
2022/04/29 02:29:08;;;;;;;18.88;8.98;;;5.30;99.90;;;;;;4947869;28;85756;-74
2022/04/29 02:31:34;;;;;;;16.48;8.60;;;5.30;99.90;;;;;;4995889;28;20065;-74
2022/04/29 02:34:01;;;;;;;19.63;8.75;;;5.30;99.90;;;;;;4941460;28;171961;-74
2022/04/29 02:36:28;;;;;;;17.48;10.45;;;5.30;99.90;;;;;;4964389;28;20076;-74
2022/04/29 02:38:54;;;;;;;18.10;9.30;;;5.30;99.90;;;;;;4943723;28;191593;-72
2022/04/29 02:41:20;;;;;;;17.55;9.07;;;5.30;99.90;;;;;;4980032;28;20050;-74
2022/04/29 02:43:46;;;;;;;18.30;8.90;;;5.30;99.90;;;;;;4957083;28;20053;-73
2022/04/29 02:46:12;;;;;;;21.70;9.13;;;5.30;99.90;;;;;;4978205;28;176040;-73
2022/04/29 02:48:39;;;;;;;20.83;8.85;;;5.40;99.90;;;;;;4956134;28;20315;-73
2022/04/29 02:51:05;;;;;;;19.85;8.40;;;5.30;99.90;;;;;;4983388;28;99721;-73
2022/04/29 02:53:31;;;;;;;20.90;9.00;;;5.40;99.90;;;;;;4955489;28;20051;-73
2022/04/29 02:55:58;;;;;;;21.27;9.20;;;5.30;99.90;;;;;;4948797;28;168333;-73
2022/04/29 02:58:24;;;;;;;16.30;8.75;;;5.30;99.90;;;;;;4955949;28;20038;-73
2022/04/29 03:01:00;;;;;;;;;;;;;;;;;;;;;
2022/04/29 03:03:41;;;;;;;21.23;9.55;;;5.30;99.90;;;;;;4993979;28;20053;-83
2022/04/29 03:06:11;;;;;;;19.77;8.55;;;5.40;99.90;;;;;;4963228;28;105706;-83
2022/04/29 03:08:57;;;;;;;20.13;9.07;;;5.30;99.90;;;;;;4981119;28;20053;-83
2022/04/29 03:11:31;;;;;;;21.08;9.45;;;5.30;99.90;;;;;;4988271;28;266209;-83
2022/04/29 03:13:58;;;;;;;24.58;9.70;;;5.30;99.90;;;;;;4957994;28;205953;-82
2022/04/29 03:16:45;;;;;;;;;;;;;;;;;;;;;
2022/04/29 03:19:17;;;;;;;19.00;9.52;;;5.30;99.90;;;;;;4966985;28;118737;-83
2022/04/29 03:21:48;;;;;;;21.20;9.27;;;5.20;99.90;;;;;;4992941;28;20285;-83
2022/04/29 03:24:31;;;;;;;17.65;8.32;;;5.20;99.90;;;;;;4972809;28;44307;-83
2022/04/29 03:27:06;;;;;;;16.50;8.80;;;5.20;99.90;;;;;;5041654;28;20068;-83
2022/04/29 03:29:39;;;;;;;19.02;9.80;;;5.20;99.90;;;;;;4985421;28;61868;-84
2022/04/29 03:32:12;;;;;;;18.10;8.55;;;5.20;99.90;;;;;;5004480;28;20512;-83
2022/04/29 03:34:46;;;;;;;17.90;9.57;;;5.20;99.90;;;;;;4978694;28;80742;-82
2022/04/29 03:37:40;;;;;;;21.05;9.85;;;5.20;99.90;;;;;;4973381;28;20054;-83
2022/04/29 03:40:22;;;;;;;17.13;9.00;;;5.20;99.90;;;;;;4949224;28;156133;-83
2022/04/29 03:42:59;;;;;;;20.58;9.55;;;5.10;99.90;;;;;;4954891;28;20046;-83
2022/04/29 03:45:31;;;;;;;20.85;9.90;;;5.10;99.90;;;;;;4937332;28;109259;-83
2022/04/29 03:48:03;;;;;;;18.10;9.93;;;5.10;99.90;;;;;;4972557;28;20075;-84
2022/04/29 03:50:35;;;;;;;16.92;8.45;;;5.10;99.90;;;;;;4939303;28;187129;-83
2022/04/29 03:53:25;;;;;;;24.85;10.02;;;5.10;99.90;;;;;;4957019;28;20051;-84
2022/04/29 03:56:07;;;;;;;22.10;9.73;;;5.10;99.90;;;;;;4827067;28;3020570;-83
2022/04/29 03:58:36;;;;;;;18.27;9.45;;;5.10;99.90;;;;;;4944328;28;20054;-83
2022/04/29 04:01:06;;;;;;;18.52;10.13;;;5.10;99.90;;;;;;4962272;28;288665;-84
2022/04/29 04:03:55;;;;;;;24.27;10.45;;;5.10;99.90;;;;;;4983926;28;20050;-83
2022/04/29 04:06:50;;;;;;;19.88;9.85;;;5.10;99.90;;;;;;4952444;28;242056;-83
2022/04/29 04:09:55;;;;;;;20.63;10.35;;;5.20;99.90;;;;;;5001459;28;20049;-82
2022/04/29 04:16:24;;;;;;;25.33;10.05;;;5.10;99.90;;;;;;4928354;28;228198;-83
2022/04/29 04:19:37;;;;;;;18.63;9.97;;;5.10;99.90;;;;;;4944473;28;186612;-84
2022/04/29 04:22:08;;;;;;;22.52;10.27;;;5.10;99.90;;;;;;4949929;28;20057;-82
2022/04/29 04:27:43;;;;;;;19.20;9.63;;;5.20;99.90;;;;;;4968764;28;20069;-82
2022/04/29 04:30:25;;;;;;;20.88;10.00;;;5.20;99.90;;;;;;4928948;28;110167;-83
2022/04/29 04:32:57;;;;;;;23.30;9.75;;;5.30;99.90;;;;;;4972092;28;20054;-83
2022/04/29 04:35:39;;;;;;;26.70;10.18;;;5.40;99.90;;;;;;4921211;28;173131;-84
2022/04/29 04:38:24;;;;;;;23.35;10.05;;;5.40;99.90;;;;;;4975348;28;20066;-83
2022/04/29 04:41:20;;;;;;;26.02;10.68;;;5.50;99.90;;;;;;4887959;28;131266;-83
2022/04/29 04:44:03;;;;;;;22.00;9.63;;;5.40;99.90;;;;;;4940820;28;20166;-83
2022/04/29 04:49:42;;;;;;;22.17;9.60;;;5.60;99.90;;;;;;4804779;29;97172;-83
2022/04/29 04:52:40;;;;;;;22.67;10.00;;;5.60;99.90;;;;;;4811590;29;20136;-83
2022/04/29 04:55:13;;;;;;;20.70;9.93;;;5.70;99.90;;;;;;4468282;29;10002926;-84
2022/04/29 04:57:39;;;;;;;19.60;9.10;;;5.80;99.90;;;;;;4829061;29;20058;-85
2022/04/29 05:00:06;;;;;;;23.30;10.18;;;5.90;99.90;;;;;;4777153;29;190266;-85
2022/04/29 05:02:33;;;;;;;19.65;9.15;;;6.00;99.90;;;;;;4795807;29;20050;-84
2022/04/29 05:05:12;;;;;;;;;;;;;;;;;;;;;
2022/04/29 05:07:44;;;;;;;24.60;9.77;;;6.20;99.90;;;;;;4822172;29;20121;-84
2022/04/29 05:10:13;;;;;;;21.50;9.93;;;6.40;99.90;;;;;;4760239;29;275886;-85
2022/04/29 05:12:44;;;;;;;19.02;9.45;;;6.50;99.90;;;;;;4800697;29;20054;-86
2022/04/29 05:15:11;;;;;;;15.95;8.80;;;6.60;99.90;;;;;;4768309;29;160214;-84
2022/04/29 05:17:44;;;;;;;15.35;8.60;;;6.70;99.90;;;;;;4853838;29;20072;-85
2022/04/29 05:20:12;;;;;;;21.05;9.23;;;6.90;99.90;;;;;;4799225;29;234965;-84
2022/04/29 05:22:39;;;;;;;18.38;8.75;;;7.00;99.90;;;;;;4851947;29;20060;-82
2022/04/29 05:25:06;;;;;;;17.73;8.55;;;7.10;99.90;;;;;;4835319;29;256835;-84
2022/04/29 05:27:33;;;;;;;22.70;9.40;;;7.10;99.90;;;;;;4940490;28;20054;-84
2022/04/29 05:29:59;;;;;;;17.85;8.32;;;7.10;99.90;;;;;;4974401;28;189143;-84
2022/04/29 05:32:26;;;;;;;17.85;8.77;;;7.20;99.90;;;;;;4996345;28;20052;-82
2022/04/29 05:34:53;;;;;;;17.80;8.65;;;7.20;99.90;;;;;;4957717;28;153382;-85
2022/04/29 05:37:33;;;;;;;23.17;9.98;;;7.30;99.90;;;;;;5013462;28;20058;-84
2022/04/29 05:43:09;;;;;;;19.25;8.70;;;7.40;99.90;;;;;;5021869;28;20045;-84
2022/04/29 05:45:38;;;;;;;18.02;8.82;;;7.40;99.90;;;;;;4994755;28;171157;-85
2022/04/29 05:48:05;;;;;;;16.25;8.90;;;7.40;99.90;;;;;;5026337;28;20056;-83
2022/04/29 05:50:31;;;;;;;16.15;8.27;;;7.50;99.90;;;;;;4970021;28;167571;-84
2022/04/29 05:53:00;;;;;;;15.63;8.30;;;7.60;99.90;;;;;;5027572;28;20054;-83
2022/04/29 05:55:35;;;;;;;17.55;8.98;;;7.60;99.90;;;;;;4954642;28;125739;-84
2022/04/29 05:58:01;;;;;;;16.70;9.30;;;7.70;99.90;;;;;;5011175;28;20062;-84
2022/04/29 06:00:27;;;;;;;18.73;9.23;;;7.70;99.90;;;;;;4960048;28;188913;-84
2022/04/29 06:02:57;;;;;;;15.15;8.52;;;7.70;99.90;;;;;;5019213;28;20586;-85
2022/04/29 06:05:37;;;;;;;17.40;7.97;;;7.80;99.90;;;;;;4940957;28;127590;-84
2022/04/29 06:08:04;;;;;;;16.20;7.97;;;7.90;99.90;;;;;;5024740;28;20065;-84
2022/04/29 06:10:41;;;;;;;20.52;8.27;;;7.90;99.90;;;;;;4966404;28;69334;-86
2022/04/29 06:13:08;;;;;;;19.85;7.95;;;8.00;99.90;;;;;;5023831;28;20057;-85
2022/04/29 06:15:59;;;;;;;14.50;7.68;;;8.00;99.90;;;;;;4972785;28;197281;-84
2022/04/29 06:18:25;;;;;;;15.38;7.38;;;8.10;99.90;;;;;;5012783;28;20049;-84
2022/04/29 06:21:24;;;;;;;15.45;7.38;;;8.10;99.90;;;;;;4981705;28;163265;-88
2022/04/29 06:23:56;;;;;;;16.08;6.97;;;8.20;99.90;;;;;;4962458;28;20090;-84
2022/04/29 06:26:23;;;;;;;15.63;7.40;;;8.30;99.90;;;;;;4921747;28;20039;-84
2022/04/29 06:28:55;;;;;;;17.73;7.93;;;8.40;99.90;;;;;;4945853;28;20057;-84
2022/04/29 06:31:23;;;;;;;16.45;7.68;;;8.40;99.90;;;;;;4935367;28;20042;-84
2022/04/29 06:33:53;;;;;;;17.60;8.18;;;8.40;99.90;;;;;;4951251;28;20146;-84
2022/04/29 06:36:19;;;;;;;15.52;7.28;;;8.60;99.90;;;;;;4934040;28;20539;-84
2022/04/29 06:38:48;;;;;;;17.42;7.65;;;8.60;99.90;;;;;;4947222;28;20046;-85
2022/04/29 06:41:17;;;;;;;14.30;7.38;;;8.60;99.90;;;;;;4967824;28;59755;-83
2022/04/29 06:43:46;;;;;;;15.73;7.47;;;8.70;99.90;;;;;;4945187;28;20330;-84
2022/04/29 06:46:13;;;;;;;18.30;7.85;;;8.80;99.90;;;;;;4948962;28;137692;-83
2022/04/29 06:48:39;;;;;;;19.50;7.03;;;8.80;99.90;;;;;;4946860;28;20381;-84
2022/04/29 06:51:06;;;;;;;16.20;7.57;;;8.90;99.90;;;;;;4964881;28;133847;-84
2022/04/29 06:53:35;;;;;;;17.98;7.07;;;9.00;99.90;;;;;;4995030;28;20053;-82
2022/04/29 06:56:01;;;;;;;14.27;6.90;;;9.00;99.90;;;;;;4978049;28;200886;-84
2022/04/29 06:58:34;;;;;;;14.82;6.45;;;9.10;99.90;;;;;;4965834;28;20050;-85
2022/04/29 07:01:00;;;;;;;16.13;7.13;;;9.20;99.90;;;;;;4886413;28;2983780;-82
2022/04/29 07:03:26;;;;;;;15.95;7.70;;;9.40;99.90;;;;;;4994997;28;20046;-81
2022/04/29 07:05:54;;;;;;;16.33;7.05;;;9.60;99.90;;;;;;4983512;28;234496;-82
2022/04/29 07:08:21;;;;;;;17.80;7.22;;;9.70;99.90;;;;;;4992615;28;20041;-83
2022/04/29 07:10:47;;;;;;;13.75;6.55;;;9.90;99.90;;;;;;4999740;28;133636;-82
2022/04/29 07:13:14;;;;;;;18.67;6.90;;;10.10;99.90;;;;;;5005923;28;20065;-83
2022/04/29 07:15:43;;;;;;;17.13;5.78;;;10.30;99.90;;;;;;4948075;28;181083;-82
2022/04/29 07:18:11;;;;;;;12.60;6.43;;;10.30;99.90;;;;;;5009811;28;20054;-83
2022/04/29 07:20:37;;;;;;;15.63;6.00;;;10.30;99.90;;;;;;4972933;28;247732;-82
2022/04/29 07:23:03;;;;;;;13.82;6.13;;;10.30;99.90;;;;;;5007719;28;20064;-82
2022/04/29 07:25:32;;;;;;;16.83;6.22;;;10.30;99.90;;;;;;4984701;28;185147;-81
2022/04/29 07:27:59;;;;;;;13.60;5.57;;;10.40;99.90;;;;;;5023875;28;20069;-82
2022/04/29 07:30:30;;;;;;;12.82;4.80;;;10.40;99.90;;;;;;4980552;28;60613;-82
2022/04/29 07:32:57;;;;;;;14.50;5.35;;;10.70;99.90;;;;;;5018948;28;20509;-84
2022/04/29 07:44:02;;;;;;;11.75;4.40;;;11.00;99.90;;;;;;4969752;28;198891;-86
2022/04/29 07:46:29;;;;;;;14.93;4.28;;;11.00;99.90;;;;;;4993996;28;20145;-84
2022/04/29 07:48:55;;;;;;;14.15;3.92;;;11.00;99.90;;;;;;4991643;28;126806;-85
2022/04/29 07:51:21;;;;;;;11.63;3.83;;;11.10;99.90;;;;;;5022348;28;20494;-83
2022/04/29 07:53:51;;;;;;;15.30;4.07;;;11.20;99.90;;;;;;4987792;28;20064;-84
2022/04/29 07:56:17;;;;;;;12.73;3.28;;;11.00;99.90;;;;;;4972533;28;272248;-83
2022/04/29 07:58:43;;;;;;;17.95;3.70;;;11.00;99.90;;;;;;4990797;28;20064;-83
2022/04/29 08:01:10;;;;;;;10.63;3.70;;;11.00;99.90;;;;;;4989989;28;72120;-83
2022/04/29 08:03:37;;;;;;;10.52;3.70;;;11.00;99.90;;;;;;4987356;28;21866;-83
2022/04/29 08:06:07;;;;;;;10.35;3.70;;;11.10;99.90;;;;;;4957436;28;151012;-83
2022/04/29 08:08:37;;;;;;;11.43;3.70;;;11.20;99.90;;;;;;4981438;28;20054;-83
2022/04/29 08:11:04;;;;;;;13.25;3.97;;;11.20;99.90;;;;;;5012230;28;76927;-84
2022/04/29 08:13:31;;;;;;;13.85;3.40;;;11.20;99.90;;;;;;4999872;28;20426;-81
2022/04/29 08:15:59;;;;;;;9.25;3.35;;;11.10;99.90;;;;;;4995649;28;20061;-83
2022/04/29 08:18:31;;;;;;;11.63;3.28;;;11.10;99.90;;;;;;4990521;28;20057;-84
2022/04/29 08:20:59;;;;;;;11.13;3.10;;;11.30;99.90;;;;;;5012404;28;153111;-83
2022/04/29 08:23:27;;;;;;;12.68;3.20;;;11.60;99.90;;;;;;5021993;28;20054;-82
2022/04/29 08:25:53;;;;;;;13.32;3.10;;;11.80;99.90;;;;;;5002788;28;46885;-83
2022/04/29 08:28:20;;;;;;;12.80;2.75;;;11.90;99.90;;;;;;4984087;28;20074;-83
2022/04/29 08:30:52;;;;;;;10.57;2.35;;;11.90;99.90;;;;;;5026288;28;159518;-84
2022/04/29 08:33:19;;;;;;;8.45;2.28;;;12.00;99.90;;;;;;4998120;28;20068;-84
2022/04/29 08:35:45;;;;;;;10.00;2.20;;;12.00;99.90;;;;;;4988147;28;49518;-84
2022/04/29 08:38:11;;;;;;;10.50;2.35;;;11.90;99.90;;;;;;5015146;28;20358;-84
2022/04/29 08:40:44;;;;;;;8.45;2.03;;;11.90;99.90;;;;;;4981614;28;97279;-83
2022/04/29 08:43:13;;;;;;;11.05;2.30;;;12.00;99.90;;;;;;5020737;28;20617;-83
2022/04/29 08:45:41;;;;;;;10.00;2.40;;;12.10;99.90;;;;;;4972901;28;65312;-84
2022/04/29 08:48:07;;;;;;;10.48;2.65;;;12.20;99.90;;;;;;4999119;28;20064;-84
2022/04/29 08:50:34;;;;;;;9.55;2.30;;;12.10;99.90;;;;;;4976222;28;38338;-84
2022/04/29 08:53:00;;;;;;;11.27;2.40;;;12.10;99.90;;;;;;5010437;28;20054;-83
2022/04/29 09:01:03;;;;;;;13.50;2.88;;;11.80;99.90;;;;;;4972094;28;36670;-83
2022/04/29 09:03:34;;;;;;;12.15;2.58;;;11.90;99.90;;;;;;4965235;28;20057;-83
2022/04/29 09:06:06;;;;;;;8.57;2.47;;;11.80;99.90;;;;;;4992404;28;164681;-83
2022/04/29 09:08:43;;;;;;;9.07;2.35;;;11.90;99.90;;;;;;4993925;28;20068;-84
2022/04/29 09:11:11;;;;;;;8.38;2.30;;;12.10;99.90;;;;;;5020964;28;111387;-84
2022/04/29 09:13:39;;;;;;;9.55;2.30;;;12.20;99.90;;;;;;4969899;28;20054;-81
2022/04/29 09:16:11;;;;;;;10.25;2.53;;;12.20;99.90;;;;;;5002097;28;114157;-81
2022/04/29 09:18:39;;;;;;;9.18;2.13;;;12.20;99.90;;;;;;4983747;28;20055;-82
2022/04/29 09:21:28;;;;;;;9.95;1.83;;;12.20;99.90;;;;;;4990910;28;101101;-82
2022/04/29 09:23:59;;;;;;;11.02;1.98;;;12.30;99.20;;;;;;4984342;28;265000;-81
2022/04/29 09:26:25;;;;;;;;;;;12.30;99.60;;;;;;5017113;28;20050;-82
2022/04/29 09:29:10;;;;;;;8.93;1.90;;;12.40;99.00;;;;;;4987752;28;20429;-81
2022/04/29 09:31:54;;;;;;;11.35;2.30;;;12.40;99.40;;;;;;4974617;28;20379;-81
2022/04/29 09:34:43;;;;;;;9.00;2.20;;;12.40;99.60;;;;;;4981902;28;195773;-81
2022/04/29 09:37:17;;;;;;;10.70;2.30;;;12.20;99.20;;;;;;5027631;28;20069;-81
2022/04/29 09:40:03;;;;;;;8.75;2.30;;;12.40;99.90;;;;;;4973864;28;119117;-81
2022/04/29 09:42:44;;;;;;;8.88;2.00;;;12.50;99.20;;;;;;5021116;28;20058;-81
2022/04/29 09:45:17;;;;;;;9.25;1.90;;;12.50;99.00;;;;;;4988337;28;102077;-81
2022/04/29 09:47:44;;;;;;;11.18;2.17;;;12.40;98.80;;;;;;5013400;28;20695;-80
2022/04/29 09:50:10;;;;;;;8.48;2.22;;;12.30;99.10;;;;;;4980074;28;146897;-81
2022/04/29 09:52:43;;;;;;;11.02;2.03;;;12.30;99.70;;;;;;5013945;28;20089;-81
2022/04/29 09:55:18;;;;;;;7.25;1.92;;;12.30;99.40;;;;;;4971693;28;20049;-81
2022/04/29 09:57:48;;;;;;;7.90;2.10;;;12.40;99.70;;;;;;4994417;28;20164;-81
2022/04/29 10:00:15;;;;;;;10.82;2.47;;;12.60;99.50;;;;;;4965985;28;236039;-82
2022/04/29 10:02:48;;;;;;;10.32;2.40;;;12.60;99.00;;;;;;5010181;28;20054;-82
2022/04/29 10:05:14;;;;;;;12.45;2.88;;;12.50;99.20;;;;;;4967786;28;135655;-82
2022/04/29 10:07:45;;;;;;;13.55;2.47;;;12.60;99.50;;;;;;4992258;28;20041;-82
2022/04/29 10:10:14;;;;;;;11.73;2.58;;;12.50;99.50;;;;;;4968189;28;20066;-82
2022/04/29 10:12:50;;;;;;;11.45;2.95;;;12.50;98.90;;;;;;4992870;28;20550;-81
2022/04/29 10:15:20;;;;;;;14.02;2.78;;;12.30;99.40;;;;;;4967142;28;54130;-81
2022/04/29 10:23:20;;;;;;;12.20;3.10;;;12.20;99.90;;;;;;4993523;28;20057;-82
2022/04/29 10:25:47;;;;;;;12.75;3.00;;;12.10;99.90;;;;;;4898580;28;2994082;-85
2022/04/29 10:28:19;;;;;;;13.02;2.90;;;12.00;99.90;;;;;;5008744;28;20073;-83
2022/04/29 10:30:46;;;;;;;12.13;2.70;;;12.00;99.90;;;;;;4949693;28;96038;-81
2022/04/29 10:33:16;;;;;;;8.95;2.45;;;11.80;99.90;;;;;;5016192;28;20045;-81
2022/04/29 10:35:53;;;;;;;8.68;2.60;;;11.90;99.90;;;;;;4966933;28;39764;-84
2022/04/29 10:38:24;;;;;;;11.55;2.75;;;12.00;99.90;;;;;;5003078;28;20073;-83
2022/04/29 10:41:20;;;;;;;10.82;2.97;;;12.20;99.90;;;;;;4990561;28;181252;-81
2022/04/29 10:43:55;;;;;;;8.48;2.50;;;12.30;99.60;;;;;;4975618;28;20740;-83
2022/04/29 10:46:40;;;;;;;10.20;2.80;;;12.40;99.80;;;;;;4984326;28;20049;-82
2022/04/29 10:49:32;;;;;;;13.48;2.70;;;12.50;99.60;;;;;;4932537;28;80714;-85
2022/04/29 10:52:00;;;;;;;9.65;2.50;;;12.60;99.20;;;;;;4919984;29;20070;-82
2022/04/29 10:54:40;;;;;;;11.07;2.53;;;12.30;99.10;;;;;;4908971;28;24988;-84
2022/04/29 10:57:35;;;;;;;10.55;2.90;;;12.30;99.10;;;;;;4948097;28;20052;-77
2022/04/29 11:00:10;;;;;;;10.18;2.85;;;12.10;99.50;;;;;;4875119;28;161164;-85
2022/04/29 11:02:39;;;;;;;9.52;2.70;;;12.10;99.30;;;;;;4897387;29;20048;-83
2022/04/29 11:05:25;;;;;;;9.00;2.90;;;12.10;99.40;;;;;;4854573;28;92036;-84
2022/04/29 11:08:13;;;;;;;7.45;2.70;;;12.20;99.50;;;;;;4933780;28;20054;-81
2022/04/29 11:10:58;;;;;;;11.02;3.22;;;12.30;99.60;;;;;;4868952;28;155899;-83
2022/04/29 11:13:30;;;;;;;11.15;2.97;;;12.40;99.50;;;;;;4903484;28;20039;-83
2022/04/29 11:16:12;;;;;;;10.52;2.90;;;12.20;98.80;;;;;;4905331;28;199903;-83
2022/04/29 11:18:41;;;;;;;10.57;3.03;;;11.90;98.90;;;;;;4905842;28;20047;-83
2022/04/29 11:26:54;;;;;;;11.35;3.55;;;11.60;99.10;;;;;;4912581;29;20084;-82
2022/04/29 11:29:22;;;;;;;11.43;3.10;;;11.70;99.40;;;;;;4914146;28;187291;-82
2022/04/29 11:31:49;;;;;;;10.48;3.10;;;11.80;99.30;;;;;;4990222;28;20375;-83
2022/04/29 11:34:16;;;;;;;9.93;3.40;;;11.90;99.10;;;;;;4949537;28;78136;-83
2022/04/29 11:36:43;;;;;;;11.48;4.10;;;11.80;99.00;;;;;;4985264;28;20053;-84
2022/04/29 11:39:22;;;;;;;9.98;3.70;;;11.70;99.10;;;;;;4950154;28;33487;-82
2022/04/29 11:41:56;;;;;;;10.93;3.88;;;11.70;99.30;;;;;;4975751;28;20073;-83
2022/04/29 11:44:42;;;;;;;11.48;3.88;;;11.70;99.50;;;;;;4954190;28;318327;-84
2022/04/29 11:47:12;;;;;;;10.57;3.78;;;11.90;99.50;;;;;;4997633;28;20403;-84
2022/04/29 11:49:39;;;;;;;12.52;3.70;;;11.70;99.10;;;;;;4659031;28;8981202;-84
2022/04/29 11:52:22;;;;;;;10.30;3.78;;;11.70;99.30;;;;;;5012170;28;20530;-83
2022/04/29 11:54:54;;;;;;;11.88;3.55;;;11.70;99.00;;;;;;4851434;28;2972570;-83
2022/04/29 11:57:47;;;;;;;12.07;3.78;;;11.70;99.00;;;;;;4989142;28;20076;-83
2022/04/29 12:00:31;;;;;;;11.90;4.00;;;11.80;98.80;;;;;;4969234;28;56658;-83
2022/04/29 12:03:00;;;;;;;;;;;12.00;99.10;;;;;;5016995;28;20058;-84
2022/04/29 12:05:55;;;;;;;10.25;3.95;;;12.30;98.60;;;;;;4955831;28;143547;-83
2022/04/29 12:08:22;;;;;;;12.23;3.80;;;12.40;98.10;;;;;;5000355;28;20068;-83
2022/04/29 12:10:57;;;;;;;11.98;3.80;;;12.60;98.00;;;;;;5022709;28;129306;-83
2022/04/29 12:13:23;;;;;;;13.18;3.70;;;12.50;97.50;;;;;;5019942;28;20048;-83
2022/04/29 12:15:55;;;;;;;10.00;3.42;;;12.40;97.60;;;;;;4994091;28;48253;-83
2022/04/29 12:18:43;;;;;;;9.35;2.97;;;12.30;97.50;;;;;;5009518;28;20064;-83
2022/04/29 12:21:10;;;;;;;10.15;3.08;;;12.20;97.10;;;;;;4997571;28;111397;-83
2022/04/29 12:23:36;;;;;;;11.65;3.00;;;12.20;97.90;;;;;;4983879;28;20053;-82
2022/04/29 12:26:10;;;;;;;11.35;2.97;;;12.40;97.60;;;;;;4988839;28;228769;-82
2022/04/29 12:28:37;;;;;;;11.25;2.95;;;12.60;97.30;;;;;;5001582;28;21264;-82
2022/04/29 12:36:55;;;;;;;10.00;2.80;;;13.10;96.90;;;;;;5026838;28;20429;-84
2022/04/29 12:39:33;;;;;;;8.85;2.70;;;13.10;96.20;;;;;;4872835;28;2988228;-82
2022/04/29 12:42:27;;;;;;;12.15;2.75;;;13.10;96.10;;;;;;5018674;28;20054;-80
2022/04/29 12:45:18;;;;;;;8.15;2.50;;;13.10;96.10;;;;;;4969744;28;228701;-81
2022/04/29 12:47:54;;;;;;;;;;;12.90;95.80;;;;;;5018447;28;20053;-81
2022/04/29 12:50:28;;;;;;;10.75;3.03;;;12.60;94.90;;;;;;4971248;28;187787;-81
2022/04/29 12:53:08;;;;;;;10.02;2.60;;;12.50;95.80;;;;;;5022991;28;20058;-80
2022/04/29 12:55:44;;;;;;;9.65;2.70;;;12.70;95.70;;;;;;4960399;28;74427;-83
2022/04/29 12:58:18;;;;;;;10.18;3.08;;;12.70;95.50;;;;;;5031087;28;20069;-82
2022/04/29 13:01:06;;;;;;;11.23;3.28;;;12.90;95.70;;;;;;4962180;28;228867;-83
2022/04/29 13:03:34;;;;;;;10.05;3.10;;;13.00;95.60;;;;;;4981424;28;20049;-81
2022/04/29 13:06:01;;;;;;;8.27;3.03;;;13.10;95.70;;;;;;4983491;28;111513;-83
2022/04/29 13:08:28;;;;;;;10.35;3.08;;;13.00;95.50;;;;;;5006023;28;20087;-82
2022/04/29 13:10:57;;;;;;;12.40;3.28;;;13.20;95.00;;;;;;4988577;28;76335;-82
2022/04/29 13:13:30;;;;;;;11.20;3.20;;;13.40;95.10;;;;;;4995944;28;20050;-81
2022/04/29 13:15:59;;;;;;;13.27;4.18;;;13.80;95.70;;;;;;4987413;28;192295;-84
2022/04/29 13:18:29;;;;;;;9.60;2.72;;;14.20;94.20;;;;;;4992955;28;20045;-82
2022/04/29 13:21:08;;;;;;;10.88;2.70;;;14.50;94.30;;;;;;4975831;28;48684;-85
2022/04/29 13:23:36;;;;;;;10.60;2.60;;;15.00;93.20;;;;;;4982492;28;20057;-83
2022/04/29 13:26:17;;;;;;;12.30;2.75;;;16.00;94.40;;;;;;5003252;28;234356;-82
2022/04/29 13:28:43;;;;;;;10.80;2.40;;;16.00;90.60;;;;;;4981890;28;20056;-84
2022/04/29 13:31:21;;;;;;;9.57;2.88;;;16.20;91.30;;;;;;4993754;28;101468;-85
2022/04/29 13:33:48;;;;;;;9.48;2.95;;;16.10;90.80;;;;;;4980648;28;20564;-86
2022/04/29 13:36:16;;;;;;;9.05;2.58;;;16.60;90.50;;;;;;4992865;28;226017;-86
2022/04/29 13:38:45;;;;;;;10.75;2.65;;;17.00;83.70;;;;;;4987451;28;20137;-85
2022/04/29 13:41:16;;;;;;;8.98;2.90;;;17.00;87.10;;;;;;4981302;28;76078;-86
2022/04/29 13:43:46;;;;;;;10.35;2.47;;;16.70;81.80;;;;;;4994401;28;20055;-86
2022/04/29 13:46:16;;;;;;;8.30;2.33;;;16.80;83.20;;;;;;5003438;28;59755;-86
2022/04/29 13:48:45;;;;;;;7.97;2.20;;;17.30;84.00;;;;;;4965981;28;20145;-86
2022/04/29 13:51:11;;;;;;;10.00;2.60;;;16.80;77.40;;;;;;4979216;28;137582;-86
2022/04/29 13:53:38;;;;;;;11.77;2.50;;;16.80;79.20;;;;;;4981986;28;20496;-86